Time;durP1;ratioP1;P1;durP2;ratioP2;P2;SDS_P1;SDS_P2;PMS_P1;PMS_P2;Temp;Humidity;BMP_temperature;BMP_pressure;BME280_temperature;BME280_humidity;BME280_pressure;Samples;Min_cycle;Max_cycle;Signal;HPM_P1;HPM_P2
2023/12/11 00:02:05;;;;;;;;;;;;;;;18.11;63.61;101203.59;7391334;19;1851;-43
2023/12/11 00:04:36;;;;;;;;;;;;;;;17.74;64.35;101201.84;7392941;19;1114;-43
2023/12/11 00:07:04;;;;;;;;;;;;;;;17.61;65.06;101201.09;7391717;19;1542;-42
2023/12/11 00:09:33;;;;;;;;;;;;;;;17.48;65.35;101195.81;7391450;19;1167;-43
2023/12/11 00:12:01;;;;;;;;;;;;;;;17.40;65.81;101200.88;7391461;19;1213;-43
2023/12/11 00:14:30;;;;;;;;;;;;;;;17.26;66.14;101208.09;7388676;19;1617;-42
2023/12/11 00:16:59;;;;;;;;;;;;;;;17.68;64.95;101205.00;7390418;19;1468;-42
2023/12/11 00:19:28;;;;;;;;;;;;;;;18.05;64.03;101212.94;7389940;19;1576;-42
2023/12/11 00:21:59;;;;;;;;;;;;;;;18.32;63.08;101201.03;7376315;19;1862;-42
2023/12/11 00:24:27;;;;;;;;;;;;;;;18.00;63.54;101207.06;7390487;19;1156;-42
2023/12/11 00:26:56;;;;;;;;;;;;;;;17.73;64.23;101199.31;7391282;19;1304;-42
2023/12/11 00:29:24;;;;;;;;;;;;;;;17.58;65.16;101198.66;7391467;19;1452;-42
2023/12/11 00:31:53;;;;;;;;;;;;;;;17.44;65.60;101202.34;7391699;19;1822;-42
2023/12/11 00:34:21;;;;;;;;;;;;;;;17.30;65.87;101198.88;7397720;19;1507;-42
2023/12/11 00:36:49;;;;;;;;;;;;;;;17.35;66.02;101189.66;7397820;19;1584;-42
2023/12/11 00:39:20;;;;;;;;;;;;;;;17.80;64.62;101182.66;7397655;19;1394;-42
2023/12/11 00:41:50;;;;;;;;;;;;;;;18.21;63.36;101194.72;7395660;19;1838;-42
2023/12/11 00:44:18;;;;;;;;;;;;;;;18.05;63.79;101179.00;7398242;19;1251;-42
2023/12/11 00:46:46;;;;;;;;;;;;;;;17.74;63.98;101182.28;7397834;19;1494;-42
2023/12/11 00:49:15;;;;;;;;;;;;;;;17.53;64.73;101182.97;7396758;19;1511;-43
2023/12/11 00:51:43;;;;;;;;;;;;;;;17.45;65.31;101185.38;7395571;19;1262;-42
2023/12/11 00:54:12;;;;;;;;;;;;;;;17.29;65.40;101167.78;7396976;19;1546;-42
2023/12/11 00:56:42;;;;;;;;;;;;;;;17.22;65.96;101171.03;7396529;19;1212;-45
2023/12/11 00:59:11;;;;;;;;;;;;;;;17.72;64.49;101168.19;7396294;19;1476;-43
2023/12/11 01:01:39;;;;;;;;;;;;;;;18.11;63.79;101164.28;7395719;19;1844;-42
2023/12/11 01:04:08;;;;;;;;;;;;;;;18.39;62.58;101159.44;7395822;19;1270;-43
2023/12/11 01:06:36;;;;;;;;;;;;;;;18.00;63.62;101153.56;7396467;19;1433;-42
2023/12/11 01:09:04;;;;;;;;;;;;;;;17.66;64.57;101156.97;7396762;19;1136;-42
2023/12/11 01:11:33;;;;;;;;;;;;;;;17.48;64.89;101142.34;7396608;19;1501;-43
2023/12/11 01:14:04;;;;;;;;;;;;;;;17.36;65.35;101128.06;7396952;19;986;-42
2023/12/11 01:16:32;;;;;;;;;;;;;;;17.28;65.59;101125.97;7397380;19;1129;-43
2023/12/11 01:19:00;;;;;;;;;;;;;;;17.29;65.80;101129.53;7395829;19;1492;-42
2023/12/11 01:21:29;;;;;;;;;;;;;;;17.79;64.31;101130.16;7395188;19;1863;-43
2023/12/11 01:23:57;;;;;;;;;;;;;;;18.07;63.62;101109.31;7382122;19;1598;-42
2023/12/11 01:26:25;;;;;;;;;;;;;;;18.33;62.68;101119.75;7396125;19;1461;-42
2023/12/11 01:28:54;;;;;;;;;;;;;;;18.39;62.40;101116.59;7395988;19;1204;-42
2023/12/11 01:31:25;;;;;;;;;;;;;;;18.44;62.14;101119.72;7395687;19;1290;-43
2023/12/11 01:33:53;;;;;;;;;;;;;;;18.35;62.86;101125.84;7396145;19;1546;-42
2023/12/11 01:36:22;;;;;;;;;;;;;;;17.83;63.19;101114.72;7394744;19;1267;-42
2023/12/11 01:38:50;;;;;;;;;;;;;;;17.61;64.32;101131.56;7395790;19;1567;-43
2023/12/11 01:41:19;;;;;;;;;;;;;;;17.47;64.91;101127.28;7395781;19;1857;-42
2023/12/11 01:43:53;;;;;;;;;;;;;;;17.39;65.05;101138.56;7393649;19;1239;-42
2023/12/11 01:46:23;;;;;;;;;;;;;;;17.19;65.63;101136.50;7395701;19;1544;-42
2023/12/11 01:48:55;;;;;;;;;;;;;;;17.48;64.81;101135.16;7394278;19;1159;-42
2023/12/11 01:51:25;;;;;;;;;;;;;;;17.95;63.50;101118.28;7395110;19;1348;-42
2023/12/11 01:53:54;;;;;;;;;;;;;;;18.19;62.76;101111.00;7394751;19;1248;-42
2023/12/11 01:56:23;;;;;;;;;;;;;;;17.85;63.46;101116.31;7393510;19;1803;-43
2023/12/11 01:58:51;;;;;;;;;;;;;;;17.60;64.13;101124.50;7394448;19;1349;-42
2023/12/11 02:01:22;;;;;;;;;;;;;;;17.39;65.04;101110.94;7393966;19;1864;-42
2023/12/11 02:03:50;;;;;;;;;;;;;;;17.36;65.10;101122.72;7394973;19;1459;-42
2023/12/11 02:06:21;;;;;;;;;;;;;;;17.21;65.67;101123.88;7394391;19;1300;-42
2023/12/11 02:08:50;;;;;;;;;;;;;;;17.58;64.46;101121.09;7394458;19;1447;-42
2023/12/11 02:11:18;;;;;;;;;;;;;;;17.96;63.63;101099.41;7395037;19;1161;-42
2023/12/11 02:13:46;;;;;;;;;;;;;;;18.23;62.92;101115.13;7394731;19;1452;-42
2023/12/11 02:16:18;;;;;;;;;;;;;;;18.37;62.60;101119.38;7394113;19;1275;-43
2023/12/11 02:18:46;;;;;;;;;;;;;;;18.37;62.17;101113.19;7394539;19;1610;-42
2023/12/11 02:21:15;;;;;;;;;;;;;;;18.27;62.18;101121.94;7393354;19;1179;-42
2023/12/11 02:23:49;;;;;;;;;;;;;;;17.81;63.28;101120.19;7377965;19;1847;-42
2023/12/11 02:26:21;;;;;;;;;;;;;;;17.59;64.02;101112.13;7393712;19;1431;-42
2023/12/11 02:28:50;;;;;;;;;;;;;;;17.41;64.98;101112.56;7393159;19;1811;-43
2023/12/11 02:31:18;;;;;;;;;;;;;;;17.33;64.77;101122.97;7393501;19;1137;-42
2023/12/11 02:33:46;;;;;;;;;;;;;;;17.25;65.38;101109.34;7393935;19;1630;-42
2023/12/11 02:36:15;;;;;;;;;;;;;;;17.99;63.17;101093.00;7393595;19;1471;-42
2023/12/11 02:38:43;;;;;;;;;;;;;;;18.88;61.23;101104.63;7393778;19;1462;-42
2023/12/11 02:41:11;;;;;;;;;;;;;;;19.41;59.56;101096.56;7393302;19;1568;-42
2023/12/11 02:43:43;;;;;;;;;;;;;;;19.61;58.99;101105.59;7391500;19;1916;-42
2023/12/11 02:46:11;;;;;;;;;;;;;;;19.72;58.72;101091.31;7392903;19;1542;-43
2023/12/11 02:48:39;;;;;;;;;;;;;;;19.81;58.43;101095.00;7393077;19;1396;-43
2023/12/11 02:51:08;;;;;;;;;;;;;;;19.84;58.46;101100.97;7391802;19;1307;-42
2023/12/11 02:53:36;;;;;;;;;;;;;;;19.87;58.21;101089.09;7392841;19;1448;-42
2023/12/11 02:56:05;;;;;;;;;;;;;;;19.89;58.31;101105.09;7392355;19;1483;-43
2023/12/11 02:58:33;;;;;;;;;;;;;;;19.92;58.28;101096.78;7393325;19;1427;-42
2023/12/11 03:01:04;;;;;;;;;;;;;;;19.94;58.18;101094.81;7391904;19;1164;-43
2023/12/11 03:03:33;;;;;;;;;;;;;;;20.02;58.05;101109.25;7391984;19;1846;-42
2023/12/11 03:06:03;;;;;;;;;;;;;;;19.99;58.29;101104.16;7392845;19;1192;-42
2023/12/11 03:08:32;;;;;;;;;;;;;;;19.83;58.58;101114.50;7392112;19;1778;-43
2023/12/11 03:11:00;;;;;;;;;;;;;;;19.74;58.97;101113.50;7391346;19;1489;-42
2023/12/11 03:13:28;;;;;;;;;;;;;;;19.88;58.48;101123.03;7392014;19;1570;-42
2023/12/11 03:15:57;;;;;;;;;;;;;;;19.88;58.34;101116.81;7393161;19;1481;-42
2023/12/11 03:18:28;;;;;;;;;;;;;;;19.88;58.50;101111.47;7392232;19;1421;-42
2023/12/11 03:20:56;;;;;;;;;;;;;;;19.84;58.52;101117.06;7392314;19;1251;-42
2023/12/11 03:23:25;;;;;;;;;;;;;;;19.84;58.48;101100.13;7376845;19;1875;-42
2023/12/11 03:25:53;;;;;;;;;;;;;;;19.80;58.42;101107.59;7390308;19;1488;-43
2023/12/11 03:28:23;;;;;;;;;;;;;;;19.82;58.54;101102.94;7391752;19;1290;-42
2023/12/11 03:30:51;;;;;;;;;;;;;;;19.82;58.75;101097.56;7392282;19;1502;-43
2023/12/11 03:33:19;;;;;;;;;;;;;;;19.89;58.34;101097.03;7392361;19;1369;-43
2023/12/11 03:35:50;;;;;;;;;;;;;;;19.86;58.44;101093.63;7391694;19;1390;-42
2023/12/11 03:38:19;;;;;;;;;;;;;;;19.91;58.22;101095.06;7391732;19;1501;-42
2023/12/11 03:40:47;;;;;;;;;;;;;;;19.89;58.42;101080.94;7391423;19;1216;-43
2023/12/11 03:43:16;;;;;;;;;;;;;;;19.88;58.26;101074.72;7390066;19;1834;-43
2023/12/11 03:45:44;;;;;;;;;;;;;;;19.92;58.41;101072.63;7391019;19;1208;-43
2023/12/11 03:48:12;;;;;;;;;;;;;;;20.00;58.07;101070.13;7391042;19;1211;-42
2023/12/11 03:50:41;;;;;;;;;;;;;;;19.79;58.29;101073.66;7390670;19;1402;-42
2023/12/11 03:53:12;;;;;;;;;;;;;;;18.98;60.36;101073.38;7389820;19;1208;-43
2023/12/11 03:55:40;;;;;;;;;;;;;;;18.53;61.39;101075.31;7391005;19;1203;-42
2023/12/11 03:58:09;;;;;;;;;;;;;;;18.23;62.14;101074.97;7390966;19;1561;-42
2023/12/11 04:00:37;;;;;;;;;;;;;;;18.07;62.58;101077.19;7391434;19;1219;-43
2023/12/11 04:03:05;;;;;;;;;;;;;;;18.32;62.36;101089.44;7389927;19;1845;-43
2023/12/11 04:05:34;;;;;;;;;;;;;;;18.72;61.14;101075.50;7390689;19;1427;-43
2023/12/11 04:08:02;;;;;;;;;;;;;;;18.82;61.14;101073.81;7388508;19;1200;-43
2023/12/11 04:10:33;;;;;;;;;;;;;;;18.97;60.72;101063.63;7389750;19;1337;-43
2023/12/11 04:13:02;;;;;;;;;;;;;;;19.10;60.30;101055.44;7390471;19;1545;-43
2023/12/11 04:15:31;;;;;;;;;;;;;;;19.20;59.88;101069.75;7390401;19;1531;-42
2023/12/11 04:17:59;;;;;;;;;;;;;;;19.27;59.87;101064.72;7390116;19;1546;-43
2023/12/11 04:20:27;;;;;;;;;;;;;;;19.19;60.06;101064.50;7390071;19;1133;-43
2023/12/11 04:22:56;;;;;;;;;;;;;;;19.21;59.82;101065.22;7377049;19;1865;-42
2023/12/11 04:25:24;;;;;;;;;;;;;;;19.13;59.95;101054.31;7391289;19;1239;-42
2023/12/11 04:27:55;;;;;;;;;;;;;;;19.20;59.78;101052.78;7390279;19;1416;-42
2023/12/11 04:30:24;;;;;;;;;;;;;;;19.13;60.04;101052.47;7389761;19;1463;-43
2023/12/11 04:32:52;;;;;;;;;;;;;;;19.14;59.75;101056.88;7390491;19;1467;-42
2023/12/11 04:35:21;;;;;;;;;;;;;;;19.13;59.91;101067.72;7390472;19;1505;-42
2023/12/11 04:37:49;;;;;;;;;;;;;;;19.08;59.94;101066.28;7387757;19;1496;-43
2023/12/11 04:40:18;;;;;;;;;;;;;;;19.13;59.79;101054.31;7387308;19;1505;-42
2023/12/11 04:42:46;;;;;;;;;;;;;;;19.14;59.52;101061.34;7388111;19;1853;-42
2023/12/11 04:45:17;;;;;;;;;;;;;;;19.16;59.68;101054.03;7386400;19;1226;-43
2023/12/11 04:47:45;;;;;;;;;;;;;;;19.16;59.65;101054.91;7387453;19;1336;-42
2023/12/11 04:50:14;;;;;;;;;;;;;;;19.23;59.57;101058.75;7389288;19;1216;-43
2023/12/11 04:52:42;;;;;;;;;;;;;;;19.22;59.98;101056.22;7389056;19;1234;-42
2023/12/11 04:55:10;;;;;;;;;;;;;;;19.31;59.87;101060.78;7388876;19;1980;-42
2023/12/11 04:57:39;;;;;;;;;;;;;;;19.27;59.68;101064.72;7388424;19;1480;-42
2023/12/11 05:00:08;;;;;;;;;;;;;;;19.26;59.71;101046.94;7388044;19;1399;-43
2023/12/11 05:02:39;;;;;;;;;;;;;;;19.21;59.28;101068.75;7388192;19;1858;-43
2023/12/11 05:05:08;;;;;;;;;;;;;;;19.18;59.27;101074.41;7388568;19;1356;-43
2023/12/11 05:07:36;;;;;;;;;;;;;;;19.26;59.29;101065.72;7388619;19;1261;-42
2023/12/11 05:10:05;;;;;;;;;;;;;;;19.16;59.33;101073.69;7388638;19;1607;-43
2023/12/11 05:12:34;;;;;;;;;;;;;;;19.17;59.41;101077.19;7388710;19;1242;-43
2023/12/11 05:15:02;;;;;;;;;;;;;;;19.21;59.26;101071.44;7388032;19;1254;-43
2023/12/11 05:17:30;;;;;;;;;;;;;;;19.23;59.13;101079.34;7386341;19;1386;-42
2023/12/11 05:20:01;;;;;;;;;;;;;;;19.22;59.52;101057.06;7388499;19;1404;-43
2023/12/11 05:22:30;;;;;;;;;;;;;;;19.24;59.75;101070.34;7393730;19;1842;-44
2023/12/11 05:24:58;;;;;;;;;;;;;;;19.22;59.55;101056.22;7379915;19;1179;-42
2023/12/11 05:27:26;;;;;;;;;;;;;;;19.12;59.64;101049.91;7397218;19;1232;-42
2023/12/11 05:29:55;;;;;;;;;;;;;;;19.15;59.81;101057.72;7394634;19;1209;-43
2023/12/11 05:32:23;;;;;;;;;;;;;;;19.13;59.46;101044.44;7393686;19;1763;-42
2023/12/11 05:34:51;;;;;;;;;;;;;;;19.19;59.55;101053.78;7394690;19;1603;-42
2023/12/11 05:37:23;;;;;;;;;;;;;;;19.13;59.67;101041.75;7392829;19;2674;-47
2023/12/11 05:39:51;;;;;;;;;;;;;;;19.12;59.68;101047.22;7394977;19;1905;-43
2023/12/11 05:42:19;;;;;;;;;;;;;;;19.12;58.97;101060.63;7395151;19;1231;-43
2023/12/11 05:44:48;;;;;;;;;;;;;;;18.98;58.74;101043.91;7393488;19;1858;-42
2023/12/11 05:47:16;;;;;;;;;;;;;;;19.04;58.87;101055.94;7396420;19;1152;-42
2023/12/11 05:49:45;;;;;;;;;;;;;;;19.05;58.97;101068.34;7394746;19;1580;-42
2023/12/11 05:52:13;;;;;;;;;;;;;;;19.02;59.07;101055.19;7394451;19;1571;-41
2023/12/11 05:54:44;;;;;;;;;;;;;;;19.11;59.12;101056.28;7395479;19;1501;-42
2023/12/11 05:57:12;;;;;;;;;;;;;;;19.17;58.80;101059.28;7395300;19;1628;-42
2023/12/11 05:59:41;;;;;;;;;;;;;;;19.13;57.74;101060.50;7393934;19;1208;-42
2023/12/11 06:02:09;;;;;;;;;;;;;;;19.20;57.74;101096.56;7394620;19;1365;-42
2023/12/11 06:04:37;;;;;;;;;;;;;;;19.17;57.63;101075.34;7391546;19;1845;-42
2023/12/11 06:07:06;;;;;;;;;;;;;;;19.24;57.32;101083.75;7393034;19;1524;-42
2023/12/11 06:09:34;;;;;;;;;;;;;;;19.21;57.50;101097.41;7393915;19;1598;-42
2023/12/11 06:12:06;;;;;;;;;;;;;;;19.24;57.79;101102.53;7395617;19;1536;-42
2023/12/11 06:14:35;;;;;;;;;;;;;;;19.35;57.67;101112.34;7394255;19;1209;-42
2023/12/11 06:17:04;;;;;;;;;;;;;;;19.29;57.61;101100.28;7395087;19;1561;-42
2023/12/11 06:19:32;;;;;;;;;;;;;;;19.28;57.67;101099.44;7393668;19;1204;-42
2023/12/11 06:22:00;;;;;;;;;;;;;;;18.99;58.31;101104.56;7391825;19;1073;-42
2023/12/11 06:24:28;;;;;;;;;;;;;;;18.61;58.94;101148.69;7375493;19;1854;-44
2023/12/11 06:26:57;;;;;;;;;;;;;;;18.29;59.89;101111.13;7391198;19;1210;-43
2023/12/11 06:29:28;;;;;;;;;;;;;;;18.04;60.97;101133.59;7390624;19;1529;-43
2023/12/11 06:31:56;;;;;;;;;;;;;;;17.82;61.19;101126.38;7391901;19;1558;-43
2023/12/11 06:34:25;;;;;;;;;;;;;;;18.17;60.61;101123.66;7392808;19;1551;-43
2023/12/11 06:36:53;;;;;;;;;;;;;;;18.82;58.77;101097.03;7393328;19;1681;-45
2023/12/11 06:39:22;;;;;;;;;;;;;;;18.91;58.19;101104.34;7382459;19;1208;-42
2023/12/11 06:41:50;;;;;;;;;;;;;;;19.01;57.71;101107.94;7389238;19;1617;-43
2023/12/11 06:44:18;;;;;;;;;;;;;;;18.92;57.64;101111.41;7387628;19;1866;-41
2023/12/11 06:46:49;;;;;;;;;;;;;;;18.68;58.99;101111.53;7392796;19;1550;-41
2023/12/11 06:49:18;;;;;;;;;;;;;;;18.64;59.37;101119.00;7392601;19;1540;-42
2023/12/11 06:51:46;;;;;;;;;;;;;;;18.66;59.83;101117.03;7393294;19;1574;-42
2023/12/11 06:54:15;;;;;;;;;;;;;;;18.61;60.16;101107.69;7378457;19;2445;-42
2023/12/11 06:56:43;;;;;;;;;;;;;;;18.63;60.31;101109.25;7391253;19;1249;-41
2023/12/11 06:59:11;;;;;;;;;;;;;;;18.64;60.39;101094.88;7392427;19;1296;-41
2023/12/11 07:01:40;;;;;;;;;;;;;;;18.71;60.18;101091.72;7391517;19;1492;-41
2023/12/11 07:04:11;;;;;;;;;;;;;;;18.72;60.13;101090.72;7392396;19;1834;-41
2023/12/11 07:06:40;;;;;;;;;;;;;;;18.70;60.37;101080.13;7390584;19;1291;-41
2023/12/11 07:09:10;;;;;;;;;;;;;;;18.77;59.97;101067.94;7389889;19;1316;-41
2023/12/11 07:11:38;;;;;;;;;;;;;;;18.80;60.22;101086.47;7392699;19;1659;-44
2023/12/11 07:14:06;;;;;;;;;;;;;;;18.74;60.16;101095.00;7391965;19;1164;-41
2023/12/11 07:16:36;;;;;;;;;;;;;;;18.75;60.01;101099.34;7388393;19;2556;-41
2023/12/11 07:19:04;;;;;;;;;;;;;;;18.87;59.81;101110.94;7389851;19;1512;-41
2023/12/11 07:21:35;;;;;;;;;;;;;;;18.78;59.97;101108.97;7390091;19;1124;-41
2023/12/11 07:24:04;;;;;;;;;;;;;;;18.77;59.81;101105.44;7376347;19;1856;-41
2023/12/11 07:26:32;;;;;;;;;;;;;;;18.81;59.94;101098.03;7391846;19;1221;-41
2023/12/11 07:29:01;;;;;;;;;;;;;;;18.79;59.97;101111.56;7391921;19;1203;-41
2023/12/11 07:31:29;;;;;;;;;;;;;;;18.74;59.87;101094.13;7391143;19;1202;-41
2023/12/11 07:33:57;;;;;;;;;;;;;;;18.80;59.67;101080.25;7391964;19;1101;-41
2023/12/11 07:36:27;;;;;;;;;;;;;;;18.83;59.64;101098.75;7390044;19;1184;-41
2023/12/11 07:38:58;;;;;;;;;;;;;;;18.87;59.31;101097.53;7391646;19;1541;-41
2023/12/11 07:41:26;;;;;;;;;;;;;;;18.93;59.35;101093.50;7389245;19;1338;-41
2023/12/11 07:43:55;;;;;;;;;;;;;;;18.91;59.58;101107.03;7391674;19;1865;-42
2023/12/11 07:46:24;;;;;;;;;;;;;;;18.89;59.52;101100.94;7390445;19;1502;-41
2023/12/11 07:48:53;;;;;;;;;;;;;;;18.84;59.41;101089.72;7391416;19;1488;-42
2023/12/11 07:51:23;;;;;;;;;;;;;;;18.91;59.48;101098.13;7388531;19;1133;-42
2023/12/11 07:53:52;;;;;;;;;;;;;;;18.91;59.48;101104.34;7390429;19;1436;-41
2023/12/11 07:56:24;;;;;;;;;;;;;;;18.91;59.52;101098.13;7389987;19;1251;-41
2023/12/11 07:58:53;;;;;;;;;;;;;;;18.90;59.31;101091.06;7390137;19;1229;-41
2023/12/11 08:01:22;;;;;;;;;;;;;;;18.87;59.39;101100.22;7391295;19;1539;-41
2023/12/11 08:03:50;;;;;;;;;;;;;;;18.91;59.26;101095.47;7387193;19;2468;-41
2023/12/11 08:06:18;;;;;;;;;;;;;;;18.93;59.25;101099.69;7390894;19;1503;-41
2023/12/11 08:08:47;;;;;;;;;;;;;;;18.95;59.04;101097.75;7391782;19;1065;-41
2023/12/11 08:11:19;;;;;;;;;;;;;;;18.92;59.15;101097.13;7388417;19;1266;-41
2023/12/11 08:13:50;;;;;;;;;;;;;;;18.95;58.96;101092.38;7388558;19;1493;-41
2023/12/11 08:16:18;;;;;;;;;;;;;;;19.00;59.13;101105.41;7389965;19;1478;-41
2023/12/11 08:18:48;;;;;;;;;;;;;;;18.98;58.83;101102.88;7389550;19;1539;-41
2023/12/11 08:21:16;;;;;;;;;;;;;;;18.98;58.96;101099.31;7390047;19;1545;-41
2023/12/11 08:23:46;;;;;;;;;;;;;;;18.98;58.60;101086.78;7387836;19;1844;-41
2023/12/11 08:26:18;;;;;;;;;;;;;;;19.09;58.59;101093.91;7378689;19;1498;-41
2023/12/11 08:28:46;;;;;;;;;;;;;;;19.01;58.74;101078.47;7388236;19;1201;-41
2023/12/11 08:31:17;;;;;;;;;;;;;;;18.95;58.74;101073.63;7389230;19;1160;-41
2023/12/11 08:33:46;;;;;;;;;;;;;;;18.94;58.94;101069.25;7389775;19;1825;-41
2023/12/11 08:36:14;;;;;;;;;;;;;;;19.00;58.98;101074.09;7387233;19;1187;-41
2023/12/11 08:38:43;;;;;;;;;;;;;;;19.01;58.71;101072.28;7389093;19;1550;-41
2023/12/11 08:41:11;;;;;;;;;;;;;;;19.04;58.72;101075.56;7388985;19;1191;-41
2023/12/11 08:43:40;;;;;;;;;;;;;;;19.02;58.79;101074.84;7387971;19;1839;-41
2023/12/11 08:46:08;;;;;;;;;;;;;;;19.00;58.92;101067.88;7386990;19;1239;-41
2023/12/11 08:48:39;;;;;;;;;;;;;;;19.09;58.50;101067.13;7389088;19;1237;-42
2023/12/11 08:51:08;;;;;;;;;;;;;;;18.99;58.93;101067.03;7387072;19;1544;-41
2023/12/11 08:53:36;;;;;;;;;;;;;;;19.08;58.48;101071.63;7391633;19;1585;-41
2023/12/11 08:56:05;;;;;;;;;;;;;;;19.12;58.28;101071.34;7393223;19;1414;-41
2023/12/11 08:58:33;;;;;;;;;;;;;;;19.14;58.45;101069.41;7395909;19;1450;-41
2023/12/11 09:01:03;;;;;;;;;;;;;;;19.03;58.48;101060.44;7394956;19;1242;-41
2023/12/11 09:03:31;;;;;;;;;;;;;;;19.02;58.71;101057.88;7395038;19;1425;-41
2023/12/11 09:06:02;;;;;;;;;;;;;;;19.11;58.57;101073.19;7391599;19;1859;-41
2023/12/11 09:08:31;;;;;;;;;;;;;;;19.08;58.31;101049.34;7391568;19;1610;-41
2023/12/11 09:10:59;;;;;;;;;;;;;;;19.09;58.50;101051.03;7394840;19;1610;-41
2023/12/11 09:13:28;;;;;;;;;;;;;;;19.04;58.46;101059.47;7395417;19;1503;-41
2023/12/11 09:15:57;;;;;;;;;;;;;;;19.05;58.63;101061.16;7392882;19;1332;-41
2023/12/11 09:18:25;;;;;;;;;;;;;;;19.14;58.39;101058.69;7393279;19;1369;-41
2023/12/11 09:20:54;;;;;;;;;;;;;;;19.08;58.38;101055.53;7394329;19;1564;-41
2023/12/11 09:23:25;;;;;;;;;;;;;;;19.05;58.46;101045.06;7392308;19;1242;-41
2023/12/11 09:25:53;;;;;;;;;;;;;;;19.08;58.71;101047.50;7375046;19;1844;-41
2023/12/11 09:28:22;;;;;;;;;;;;;;;19.11;58.39;101057.13;7394539;19;1380;-41
2023/12/11 09:30:50;;;;;;;;;;;;;;;19.12;58.39;101039.19;7393233;19;1242;-41
2023/12/11 09:33:18;;;;;;;;;;;;;;;19.16;58.34;101040.63;7390777;19;1207;-41
2023/12/11 09:35:47;;;;;;;;;;;;;;;19.18;58.29;101052.06;7390409;19;1520;-55
2023/12/11 09:38:15;;;;;;;;;;;;;;;19.11;58.57;101037.50;7394230;19;1496;-41
2023/12/11 09:40:46;;;;;;;;;;;;;;;19.10;58.38;101035.78;7395220;19;1211;-42
2023/12/11 09:43:15;;;;;;;;;;;;;;;19.13;58.44;101049.78;7391535;19;1489;-41
2023/12/11 09:45:45;;;;;;;;;;;;;;;18.92;58.85;101033.69;7391132;19;1856;-41
2023/12/11 09:48:13;;;;;;;;;;;;;;;18.51;59.68;101035.25;7393348;19;1298;-41
2023/12/11 09:50:41;;;;;;;;;;;;;;;18.17;60.64;101024.63;7392525;19;1348;-41
2023/12/11 09:53:11;;;;;;;;;;;;;;;18.04;61.24;101032.75;7392418;19;1196;-42
2023/12/11 09:55:39;;;;;;;;;;;;;;;17.85;61.57;101028.03;7391242;19;1312;-45
2023/12/11 09:58:10;;;;;;;;;;;;;;;17.74;61.95;101019.97;7390521;19;2541;-41
2023/12/11 10:00:39;;;;;;;;;;;;;;;17.65;61.93;101036.75;7392572;19;1517;-41
2023/12/11 10:03:08;;;;;;;;;;;;;;;17.59;62.39;101027.38;7393375;19;1231;-41
2023/12/11 10:05:36;;;;;;;;;;;;;;;17.50;62.73;101007.56;7388255;19;1846;-41
2023/12/11 10:08:05;;;;;;;;;;;;;;;17.44;62.81;101047.28;7394561;19;1427;-41
2023/12/11 10:10:33;;;;;;;;;;;;;;;17.39;62.77;101030.75;7395665;19;1117;-41
2023/12/11 10:13:03;;;;;;;;;;;;;;;17.37;62.93;101022.88;7395189;19;1653;-41
2023/12/11 10:15:35;;;;;;;;;;;;;;;17.34;63.02;101020.41;7392781;19;1617;-41
2023/12/11 10:18:08;;;;;;;;;;;;;;;17.26;62.94;101015.66;7393400;19;1476;-41
2023/12/11 10:20:37;;;;;;;;;;;;;;;17.28;62.99;101013.72;7392991;19;1477;-42
2023/12/11 10:23:15;;;;;;;;;;;;;;;17.24;63.27;101006.06;7393369;19;1609;-41
2023/12/11 10:25:44;;;;;;;;;;;;;;;17.26;62.94;101004.13;7373374;19;1837;-41
2023/12/11 10:28:13;;;;;;;;;;;;;;;17.25;62.97;101015.78;7393624;19;1096;-41
2023/12/11 10:30:51;;;;;;;;;;;;;;;17.70;62.18;101002.47;7393450;19;1484;-41
2023/12/11 10:33:21;;;;;;;;;;;;;;;18.16;60.83;101006.00;7393070;19;1332;-41
2023/12/11 10:35:49;;;;;;;;;;;;;;;18.54;59.83;101005.53;7392533;19;1147;-41
2023/12/11 10:38:22;;;;;;;;;;;;;;;18.73;59.15;100991.47;7391810;19;1347;-41
2023/12/11 10:40:51;;;;;;;;;;;;;;;18.74;59.06;100986.97;7393534;19;1176;-41
2023/12/11 10:43:20;;;;;;;;;;;;;;;18.78;58.95;100983.91;7392478;19;1853;-41
2023/12/11 10:45:51;;;;;;;;;;;;;;;18.76;59.14;100968.94;7390669;19;1838;-41
2023/12/11 10:48:20;;;;;;;;;;;;;;;18.69;59.04;100961.41;7390071;19;1506;-41
2023/12/11 10:50:48;;;;;;;;;;;;;;;18.75;59.25;100981.47;7390697;19;1536;-41
2023/12/11 10:53:18;;;;;;;;;;;;;;;18.79;59.15;100974.91;7391341;19;1268;-41
2023/12/11 10:55:49;;;;;;;;;;;;;;;18.79;58.86;100974.03;7391369;19;1404;-41
2023/12/11 10:58:17;;;;;;;;;;;;;;;18.81;58.96;100982.84;7390937;19;1566;-41
2023/12/11 11:00:47;;;;;;;;;;;;;;;18.87;58.80;100976.94;7390727;19;1580;-41
2023/12/11 11:03:19;;;;;;;;;;;;;;;18.81;58.87;100974.78;7391468;19;1662;-41
2023/12/11 11:05:48;;;;;;;;;;;;;;;18.80;58.95;100954.31;7389647;19;1837;-41
2023/12/11 11:08:22;;;;;;;;;;;;;;;18.81;58.88;100966.75;7390881;19;1149;-41
2023/12/11 11:10:54;;;;;;;;;;;;;;;18.87;58.88;100955.53;7392429;19;1100;-41
2023/12/11 11:13:23;;;;;;;;;;;;;;;18.91;58.65;100956.13;7392285;19;1321;-58
2023/12/11 11:15:55;;;;;;;;;;;;;;;18.88;58.74;100959.91;7391764;19;1503;-41
2023/12/11 11:18:26;;;;;;;;;;;;;;;18.90;58.66;100941.00;7390926;19;1503;-41
2023/12/11 11:21:10;;;;;;;;;;;;;;;18.90;58.73;100955.28;7391739;19;1247;-41
2023/12/11 11:23:42;;;;;;;;;;;;;;;18.98;58.71;100952.78;7389177;19;1556;-41
2023/12/11 11:26:25;;;;;;;;;;;;;;;18.90;58.67;100928.47;7375986;19;1840;-41
2023/12/11 11:28:54;;;;;;;;;;;;;;;18.93;59.01;100938.06;7390921;19;1499;-55
2023/12/11 11:31:22;;;;;;;;;;;;;;;18.94;58.67;100940.63;7389873;19;1082;-41
2023/12/11 11:33:56;;;;;;;;;;;;;;;18.97;58.66;100940.34;7391278;19;1171;-41
2023/12/11 11:36:44;;;;;;;;;;;;;;;18.89;58.75;100916.03;7392331;19;1034;-41
2023/12/11 11:39:16;;;;;;;;;;;;;;;18.95;58.55;100910.16;7389591;19;1361;-41
2023/12/11 11:41:45;;;;;;;;;;;;;;;18.98;58.64;100919.75;7389765;19;1573;-41
2023/12/11 11:44:13;;;;;;;;;;;;;;;18.94;58.66;100911.16;7391311;19;1752;-41
2023/12/11 11:46:47;;;;;;;;;;;;;;;18.98;58.60;100914.41;7388632;19;1870;-41
2023/12/11 11:49:25;;;;;;;;;;;;;;;18.98;58.78;100915.25;7390439;19;1483;-41
2023/12/11 11:51:53;;;;;;;;;;;;;;;18.93;58.50;100917.47;7389851;19;1425;-41
2023/12/11 11:54:25;;;;;;;;;;;;;;;18.98;58.63;100904.53;7389880;19;1850;-41
2023/12/11 11:56:56;;;;;;;;;;;;;;;18.96;58.72;100886.88;7389372;19;1552;-41
2023/12/11 11:59:24;;;;;;;;;;;;;;;18.97;58.63;100918.06;7389420;19;1157;-64
2023/12/11 12:01:53;;;;;;;;;;;;;;;19.02;58.45;100903.28;7391014;19;1845;-41
2023/12/11 12:04:31;;;;;;;;;;;;;;;19.01;58.61;100888.19;7389560;19;1524;-41
2023/12/11 12:07:01;;;;;;;;;;;;;;;19.02;58.40;100892.56;7386855;19;1853;-41
2023/12/11 12:09:33;;;;;;;;;;;;;;;18.99;58.80;100892.81;7388186;19;1600;-41
2023/12/11 12:12:04;;;;;;;;;;;;;;;18.96;58.52;100878.84;7387787;19;1207;-41
2023/12/11 12:14:32;;;;;;;;;;;;;;;18.94;58.64;100875.44;7389392;19;1887;-41
2023/12/11 12:17:00;;;;;;;;;;;;;;;19.02;58.48;100867.59;7389645;19;1140;-41
2023/12/11 12:19:32;;;;;;;;;;;;;;;19.06;58.52;100875.25;7390515;19;1651;-42
2023/12/11 12:22:02;;;;;;;;;;;;;;;19.01;58.54;100866.75;7388880;19;1080;-41
2023/12/11 12:24:33;;;;;;;;;;;;;;;19.03;58.50;100853.22;7389953;19;1272;-41
2023/12/11 12:27:04;;;;;;;;;;;;;;;19.02;58.40;100855.06;7373270;19;1850;-41
2023/12/11 12:29:33;;;;;;;;;;;;;;;19.04;58.48;100860.28;7396788;19;1595;-41
2023/12/11 12:32:02;;;;;;;;;;;;;;;19.03;58.37;100837.97;7396991;19;1633;-41
2023/12/11 12:34:32;;;;;;;;;;;;;;;18.92;58.80;100842.56;7394751;19;1247;-42
2023/12/11 12:37:02;;;;;;;;;;;;;;;18.55;59.89;100853.75;7396174;19;1184;-41
2023/12/11 12:39:33;;;;;;;;;;;;;;;18.23;60.63;100858.16;7396293;19;1093;-41
2023/12/11 12:42:02;;;;;;;;;;;;;;;18.02;61.36;100857.25;7394525;19;1226;-41
2023/12/11 12:44:30;;;;;;;;;;;;;;;17.85;61.58;100845.28;7395379;19;1477;-41
2023/12/11 12:47:02;;;;;;;;;;;;;;;18.01;61.36;100829.66;7393661;19;1853;-42
2023/12/11 12:49:33;;;;;;;;;;;;;;;18.53;60.05;100828.94;7395738;19;1338;-41
2023/12/11 12:52:01;;;;;;;;;;;;;;;18.78;59.26;100830.34;7395165;19;1565;-41
2023/12/11 12:54:29;;;;;;;;;;;;;;;18.92;58.94;100843.44;7395081;19;1549;-41
2023/12/11 12:57:01;;;;;;;;;;;;;;;18.89;58.82;100841.00;7393406;19;2304;-41
2023/12/11 12:59:29;;;;;;;;;;;;;;;18.98;58.89;100845.59;7395026;19;1395;-41